Terminal Aerodrome Forecast
Issued by NWS

Home | Current Version | Previous Version | Text Only | Print | Product List | Glossary Off
Versions: 1 2 3 4 5 6 7 8 9 10 11 12 13 14 15 16 17 18 19 20 21 22 23 24 25 26 27

936
FTUS45 KGGW 270520
TAFOLF
TAF
KOLF 270520Z 2706/2806 27005KT P6SM SCT110
     FM271500 29009KT P6SM SCT090
     FM271800 30015G23KT P6SM BKN080
     FM280200 31008KT P6SM SCT100=

USA.gov is the U.S. government's official web portal to all federal, state and local government web resources and services.